Time;durP1;ratioP1;P1;durP2;ratioP2;P2;SDS_P1;SDS_P2;PMS_P1;PMS_P2;Temp;Humidity;BMP_temperature;BMP_pressure;BME280_temperature;BME280_humidity;BME280_pressure;Samples;Min_cycle;Max_cycle;Signal;HPM_P1;HPM_P2
2023/10/25 00:01:23;;;;;;;3.30;1.40;;;;;;;9.89;100.00;100250.84;4993598;28;96612;-29
2023/10/25 00:03:48;;;;;;;1.52;1.10;;;;;;;9.89;100.00;100251.72;4994090;28;96848;-27
2023/10/25 00:06:13;;;;;;;2.10;1.27;;;;;;;9.95;100.00;100258.53;4992981;28;97781;-28
2023/10/25 00:08:39;;;;;;;2.72;1.20;;;;;;;9.90;100.00;100245.31;4993457;28;97222;-27
2023/10/25 00:11:06;;;;;;;3.17;1.30;;;;;;;9.87;100.00;100244.69;4992768;28;96553;-27
2023/10/25 00:13:32;;;;;;;3.22;1.10;;;;;;;9.92;100.00;100253.34;4991837;28;96945;-27
2023/10/25 00:15:58;;;;;;;1.50;1.08;;;;;;;9.85;100.00;100236.66;4992947;28;98444;-27
2023/10/25 00:18:24;;;;;;;2.47;0.95;;;;;;;9.87;100.00;100258.22;4992825;28;98954;-27
2023/10/25 00:20:50;;;;;;;2.28;1.10;;;;;;;9.88;100.00;100257.22;4991716;28;96828;-29
2023/10/25 00:23:18;;;;;;;3.03;1.10;;;;;;;9.90;100.00;100252.59;4991636;28;96733;-28
2023/10/25 00:25:43;;;;;;;2.30;1.13;;;;;;;9.83;100.00;100233.19;4991309;28;101067;-27
2023/10/25 00:28:09;;;;;;;2.67;1.15;;;;;;;9.84;100.00;100247.59;4993211;28;100947;-29
2023/10/25 00:30:34;;;;;;;1.98;1.00;;;;;;;9.79;100.00;100234.38;4992859;28;96489;-29
2023/10/25 00:32:59;;;;;;;2.33;1.25;;;;;;;9.82;100.00;100246.81;4992694;28;96890;-27
2023/10/25 00:35:25;;;;;;;1.15;0.88;;;;;;;9.78;100.00;100241.63;4992189;28;99425;-27
2023/10/25 00:37:50;;;;;;;5.35;1.23;;;;;;;9.75;100.00;100243.69;4993068;28;97276;-27
2023/10/25 00:40:15;;;;;;;1.40;0.88;;;;;;;9.70;100.00;100248.50;4993243;28;96514;-27
2023/10/25 00:42:41;;;;;;;1.85;1.23;;;;;;;9.72;100.00;100251.97;4992925;28;96780;-27
2023/10/25 00:45:06;;;;;;;1.15;0.70;;;;;;;9.72;100.00;100251.97;4992455;28;98349;-27
2023/10/25 00:47:32;;;;;;;1.95;0.82;;;;;;;9.69;100.00;100236.84;4990626;28;102448;-27
2023/10/25 00:49:58;;;;;;;1.92;1.10;;;;;;;9.72;100.00;100244.72;4992988;28;96552;-27
2023/10/25 00:52:24;;;;;;;1.88;1.08;;;;;;;9.71;100.00;100240.31;4993362;28;96906;-28
2023/10/25 00:54:51;;;;;;;1.35;0.95;;;;;;;9.70;100.00;100237.69;4992013;28;99588;-27
2023/10/25 00:57:16;;;;;;;2.63;1.23;;;;;;;9.72;100.00;100230.34;4990841;28;101367;-27
2023/10/25 00:59:42;;;;;;;2.47;1.00;;;;;;;9.68;100.00;100231.56;4991951;28;96487;-28
2023/10/25 01:02:08;;;;;;;1.23;0.95;;;;;;;9.72;100.00;100239.31;4992632;28;96848;-27
2023/10/25 01:04:33;;;;;;;1.95;1.20;;;;;;;9.74;100.00;100234.69;4990692;28;101103;-27
2023/10/25 01:06:59;;;;;;;1.85;0.93;;;;;;;9.69;100.00;100223.31;4992127;28;99174;-27
2023/10/25 01:09:25;;;;;;;4.13;1.30;;;;;;;9.73;100.00;100221.28;4992365;28;96630;-28
2023/10/25 01:11:50;;;;;;;1.67;1.25;;;;;;;9.73;100.00;100221.28;4992574;28;96756;-27
2023/10/25 01:14:15;;;;;;;1.67;1.20;;;;;;;9.69;100.00;100215.19;4992141;28;97870;-28
2023/10/25 01:16:41;;;;;;;1.83;1.17;;;;;;;9.65;100.00;100212.81;4992672;28;97299;-27
2023/10/25 01:19:06;;;;;;;3.08;1.42;;;;;;;9.65;100.00;100208.25;4992192;28;96492;-27
2023/10/25 01:21:32;;;;;;;3.22;1.08;;;;;;;9.62;100.00;100207.63;4992338;28;96861;-27
2023/10/25 01:23:57;;;;;;;3.58;1.27;;;;;;;9.64;100.00;100205.69;4991557;28;98003;-28
2023/10/25 01:26:22;;;;;;;1.60;1.20;;;;;;;9.60;100.00;100194.19;4992026;28;97746;-27
2023/10/25 01:28:48;;;;;;;2.75;1.33;;;;;;;9.59;100.00;100189.75;4992169;28;96614;-28
2023/10/25 01:31:13;;;;;;;1.20;0.80;;;;;;;9.61;100.00;100200.50;4992118;28;96852;-27
2023/10/25 01:33:38;;;;;;;2.00;1.17;;;;;;;9.55;100.00;100190.94;4991841;28;99458;-28
2023/10/25 01:36:04;;;;;;;1.80;1.15;;;;;;;9.53;100.00;100190.16;4991849;28;97392;-27
2023/10/25 01:38:29;;;;;;;2.08;1.40;;;;;;;9.55;100.00;100199.91;4992166;28;96667;-28
2023/10/25 01:40:54;;;;;;;5.13;1.70;;;;;;;9.56;100.00;100189.97;4992407;28;96769;-27
2023/10/25 01:43:21;;;;;;;2.10;1.13;;;;;;;9.52;100.00;100186.59;4991941;28;97839;-27
2023/10/25 01:45:46;;;;;;;4.25;1.23;;;;;;;9.51;100.00;100173.19;4991595;28;97618;-30
2023/10/25 01:48:11;;;;;;;1.67;1.13;;;;;;;9.53;100.00;100187.47;4991370;28;96848;-28
2023/10/25 01:50:37;;;;;;;2.30;1.45;;;;;;;9.48;100.00;100186.91;4991929;28;96770;-28
2023/10/25 01:53:02;;;;;;;1.20;0.98;;;;;;;9.50;100.00;100171.47;4991536;28;99290;-27
2023/10/25 01:55:27;;;;;;;1.58;1.08;;;;;;;9.43;100.00;100176.41;4991574;28;97343;-28
2023/10/25 01:57:53;;;;;;;2.13;1.23;;;;;;;9.47;100.00;100177.94;4991866;28;96694;-27
2023/10/25 02:00:18;;;;;;;2.05;1.30;;;;;;;9.39;100.00;100169.50;4991530;28;96819;-28
2023/10/25 02:02:44;;;;;;;4.10;0.90;;;;;;;9.41;100.00;100172.09;4991657;28;97935;-28
2023/10/25 02:05:09;;;;;;;3.08;1.38;;;;;;;9.42;100.00;100168.44;4991467;28;99885;-28
2023/10/25 02:07:35;;;;;;;2.15;1.05;;;;;;;9.40;100.00;100162.25;4991652;28;96695;-27
2023/10/25 02:10:00;;;;;;;1.52;1.25;;;;;;;9.41;100.00;100156.72;4991765;28;96814;-27
2023/10/25 02:12:25;;;;;;;4.13;1.50;;;;;;;9.39;100.00;100161.41;4991024;28;97454;-27
2023/10/25 02:14:51;;;;;;;1.98;1.27;;;;;;;9.39;100.00;100157.81;4991812;28;97881;-28
2023/10/25 02:17:17;;;;;;;1.73;0.95;;;;;;;9.36;100.00;100154.34;4994812;28;96680;-28
2023/10/25 02:19:45;;;;;;;2.72;1.33;;;;;;;9.31;100.00;100150.22;4994712;28;96741;-27
2023/10/25 02:22:10;;;;;;;2.50;1.52;;;;;;;9.33;100.00;100151.00;4994853;28;98475;-28
2023/10/25 02:24:35;;;;;;;3.22;1.48;;;;;;;9.23;100.00;100148.03;4994855;28;98011;-28
2023/10/25 02:27:01;;;;;;;2.60;1.27;;;;;;;9.20;100.00;100145.56;4994979;28;96741;-28
2023/10/25 02:29:26;;;;;;;1.88;1.25;;;;;;;9.22;100.00;100146.28;4994932;28;96799;-27
2023/10/25 02:31:51;;;;;;;3.15;1.17;;;;;;;9.25;100.00;100140.69;4994646;28;97418;-27
2023/10/25 02:34:17;;;;;;;1.85;1.05;;;;;;;9.21;100.00;100141.00;4994570;28;97777;-28
2023/10/25 02:36:42;;;;;;;2.60;1.48;;;;;;;9.24;100.00;100147.06;4994373;28;96689;-28
2023/10/25 02:39:09;;;;;;;1.55;1.02;;;;;;;9.24;100.00;100141.66;4994486;28;96828;-28
2023/10/25 02:41:34;;;;;;;5.30;1.02;;;;;;;9.19;100.00;100141.09;4992957;28;101044;-27
2023/10/25 02:43:59;;;;;;;1.80;1.15;;;;;;;9.19;100.00;100138.41;4993751;28;104043;-27
2023/10/25 02:46:26;;;;;;;3.53;1.10;;;;;;;9.22;100.00;100135.47;4992805;28;96782;-28
2023/10/25 02:48:52;;;;;;;3.05;1.17;;;;;;;9.18;100.00;100125.88;4993042;28;96827;-27
2023/10/25 02:51:18;;;;;;;1.63;1.17;;;;;;;9.20;100.00;100140.16;4992914;28;100777;-27
2023/10/25 02:53:43;;;;;;;7.05;1.58;;;;;;;9.21;100.00;100132.91;4994609;28;98803;-28
2023/10/25 02:56:09;;;;;;;1.25;0.65;;;;;;;9.19;100.00;100119.50;4994155;28;98644;-28
2023/10/25 02:58:34;;;;;;;6.25;1.75;;;;;;;9.19;100.00;100121.31;4994700;28;96800;-27
2023/10/25 03:01:00;;;;;;;1.88;1.30;;;;;;;9.25;100.00;100126.34;4993755;28;98956;-28
2023/10/25 03:03:30;;;;;;;1.88;0.90;;;;;;;9.23;100.00;100120.16;4994043;28;96623;-28
2023/10/25 03:05:56;;;;;;;1.85;1.27;;;;;;;9.22;100.00;100116.56;4992733;28;96765;-28
2023/10/25 03:08:21;;;;;;;2.05;1.33;;;;;;;9.24;100.00;100117.34;4994308;28;96659;-27
2023/10/25 03:10:47;;;;;;;2.50;1.38;;;;;;;9.24;100.00;100114.63;4994075;28;98350;-28
2023/10/25 03:13:12;;;;;;;1.83;1.08;;;;;;;9.22;100.00;100110.31;4994049;28;97312;-27
2023/10/25 03:15:38;;;;;;;3.75;1.52;;;;;;;9.23;100.00;100121.03;4994096;28;98039;-28
2023/10/25 03:18:03;;;;;;;1.85;1.27;;;;;;;9.20;100.00;100110.44;4994124;28;96967;-29
2023/10/25 03:20:29;;;;;;;2.05;1.27;;;;;;;9.24;100.00;100108.38;4994128;28;98130;-28
2023/10/25 03:22:56;;;;;;;2.85;1.48;;;;;;;9.21;100.00;100105.88;4992410;28;100897;-28
2023/10/25 03:25:21;;;;;;;3.63;1.38;;;;;;;9.13;100.00;100090.19;4992219;28;97387;-28
2023/10/25 03:27:46;;;;;;;1.95;1.40;;;;;;;9.22;100.00;100102.19;4992430;28;96839;-28
2023/10/25 03:30:12;;;;;;;1.20;0.98;;;;;;;9.22;100.00;100113.00;4993682;28;99371;-29
2023/10/25 03:32:37;;;;;;;1.42;1.02;;;;;;;9.19;100.00;100097.00;4993483;28;99515;-27
2023/10/25 03:35:04;;;;;;;2.45;1.60;;;;;;;9.20;100.00;100096.91;4993790;28;96843;-27
2023/10/25 03:37:29;;;;;;;1.95;1.10;;;;;;;9.16;100.00;100087.28;4992468;28;96864;-29
2023/10/25 03:39:55;;;;;;;1.98;1.25;;;;;;;9.21;100.00;100087.81;4993358;28;99321;-27
2023/10/25 03:42:20;;;;;;;6.13;1.40;;;;;;;9.14;100.00;100075.72;4993982;28;97779;-28
2023/10/25 03:44:45;;;;;;;2.22;1.33;;;;;;;9.14;100.00;100078.41;4993362;28;96668;-28
2023/10/25 03:47:11;;;;;;;1.85;1.08;;;;;;;9.10;100.00;100071.47;4993342;28;96773;-27
2023/10/25 03:49:36;;;;;;;1.40;0.95;;;;;;;9.08;100.00;100066.19;4993207;28;97340;-28
2023/10/25 03:52:01;;;;;;;1.33;1.08;;;;;;;9.13;100.00;100082.09;4993305;28;102763;-27
2023/10/25 03:54:27;;;;;;;2.38;1.58;;;;;;;9.08;100.00;100070.72;4993366;28;96751;-27
2023/10/25 03:56:52;;;;;;;3.22;1.10;;;;;;;9.13;100.00;100077.56;4993593;28;96829;-28
2023/10/25 03:59:17;;;;;;;2.50;1.40;;;;;;;9.03;100.00;100052.09;4993190;28;99503;-28
2023/10/25 04:01:43;;;;;;;2.25;1.25;;;;;;;9.09;100.00;100062.50;4992866;28;99101;-27
2023/10/25 04:04:11;;;;;;;1.80;0.95;;;;;;;9.14;100.00;100064.91;4992046;28;96643;-27
2023/10/25 04:06:37;;;;;;;1.55;0.95;;;;;;;9.15;100.00;100055.81;4993714;28;96842;-27
2023/10/25 04:09:02;;;;;;;1.48;1.08;;;;;;;9.15;100.00;100053.09;4992935;28;99636;-27
2023/10/25 04:11:27;;;;;;;1.15;0.95;;;;;;;9.13;100.00;100055.06;4993186;28;97730;-28
2023/10/25 04:13:53;;;;;;;1.50;0.93;;;;;;;9.09;100.00;100043.59;4993029;28;96531;-28
2023/10/25 04:16:18;;;;;;;1.77;1.25;;;;;;;9.13;100.00;100052.38;4992882;28;96893;-27
2023/10/25 04:18:43;;;;;;;1.42;1.05;;;;;;;9.11;100.00;100048.91;4993039;28;97411;-28
2023/10/25 04:21:11;;;;;;;1.80;1.17;;;;;;;9.08;100.00;100041.88;4993092;28;97819;-28
2023/10/25 04:23:37;;;;;;;2.22;1.20;;;;;;;9.09;100.00;100046.31;4991491;28;97945;-28
2023/10/25 04:26:11;;;;;;;1.27;0.90;;;;;;;9.16;100.00;100049.44;4993226;28;96789;-28
2023/10/25 04:28:38;;;;;;;1.73;1.27;;;;;;;9.17;100.00;100043.06;4991381;28;101476;-27
2023/10/25 04:31:04;;;;;;;1.23;1.02;;;;;;;9.19;100.00;100033.03;4991573;28;101361;-27
2023/10/25 04:33:30;;;;;;;2.03;1.02;;;;;;;9.20;100.00;100036.59;4993117;28;96428;-27
2023/10/25 04:35:56;;;;;;;2.97;1.50;;;;;;;9.13;100.00;100026.22;4991518;28;96830;-29
2023/10/25 04:38:23;;;;;;;1.63;1.17;;;;;;;9.20;100.00;100033.88;4991713;28;98902;-28
2023/10/25 04:40:49;;;;;;;2.17;1.35;;;;;;;9.19;100.00;100030.31;4991223;28;100759;-27
2023/10/25 04:43:14;;;;;;;2.13;1.20;;;;;;;9.23;100.00;100034.56;4991277;28;96614;-28
2023/10/25 04:45:40;;;;;;;2.17;1.30;;;;;;;9.21;100.00;100019.41;4992392;28;96902;-28
2023/10/25 04:48:05;;;;;;;3.10;1.05;;;;;;;9.24;100.00;100019.19;4992575;28;97255;-27
2023/10/25 04:50:34;;;;;;;2.22;1.25;;;;;;;9.23;100.00;100015.63;4992536;28;97783;-27
2023/10/25 04:53:02;;;;;;;2.65;1.20;;;;;;;9.24;100.00;100008.38;4991261;28;96991;-28
2023/10/25 04:55:29;;;;;;;1.70;0.98;;;;;;;9.27;100.00;100005.47;4992638;28;96808;-28
2023/10/25 04:57:55;;;;;;;2.05;1.30;;;;;;;9.31;100.00;100006.97;4990655;28;100894;-27
2023/10/25 05:00:21;;;;;;;2.28;1.20;;;;;;;9.31;100.00;100009.69;4990927;28;101522;-27
2023/10/25 05:02:46;;;;;;;3.80;1.20;;;;;;;9.30;100.00;100008.84;4992111;28;96502;-28
2023/10/25 05:05:11;;;;;;;1.38;1.17;;;;;;;9.31;100.00;100006.97;4992634;28;96773;-28
2023/10/25 05:07:37;;;;;;;4.28;1.30;;;;;;;9.30;100.00;99997.16;4992358;28;97615;-27
2023/10/25 05:10:07;;;;;;;1.25;1.02;;;;;;;9.32;100.00;99997.94;4992427;28;97891;-28
2023/10/25 05:12:41;;;;;;;2.30;0.95;;;;;;;9.34;100.00;99996.84;4992012;28;96783;-27
2023/10/25 05:15:08;;;;;;;1.65;1.00;;;;;;;9.33;100.00;99991.53;4992150;28;96615;-27
2023/10/25 05:17:34;;;;;;;1.42;0.80;;;;;;;9.33;100.00;99981.59;4990723;28;102179;-27
2023/10/25 05:20:01;;;;;;;2.67;0.90;;;;;;;9.36;100.00;99986.75;4991109;28;100852;-28
2023/10/25 05:22:29;;;;;;;1.55;0.93;;;;;;;9.36;100.00;99978.66;4990872;28;96964;-27
2023/10/25 05:24:55;;;;;;;1.48;0.93;;;;;;;9.37;100.00;99971.44;4992053;28;96780;-28
2023/10/25 05:27:21;;;;;;;1.92;0.93;;;;;;;9.38;100.00;99970.44;4991340;28;97323;-28
2023/10/25 05:29:46;;;;;;;1.38;0.93;;;;;;;9.37;100.00;99966.03;4992141;28;97829;-28
2023/10/25 05:32:17;;;;;;;1.98;1.13;;;;;;;9.41;100.00;99959.41;4992136;28;96593;-28
2023/10/25 05:34:42;;;;;;;1.02;0.80;;;;;;;9.40;100.00;99962.25;4990718;28;96732;-28
2023/10/25 05:37:08;;;;;;;1.40;0.95;;;;;;;9.42;100.00;99960.31;4992069;28;98121;-27
2023/10/25 05:39:34;;;;;;;1.88;0.95;;;;;;;9.41;100.00;99958.56;4992060;28;97332;-28
2023/10/25 05:42:04;;;;;;;1.05;0.73;;;;;;;9.47;100.00;99967.09;4991882;28;96562;-27
2023/10/25 05:44:30;;;;;;;1.33;0.85;;;;;;;9.42;100.00;99954.91;4990557;28;96766;-28
2023/10/25 05:46:55;;;;;;;1.00;0.90;;;;;;;9.48;100.00;99963.41;4991557;28;97883;-28
2023/10/25 05:49:21;;;;;;;1.65;0.88;;;;;;;9.49;100.00;99948.06;4991911;28;97818;-28
2023/10/25 05:51:46;;;;;;;2.35;1.15;;;;;;;9.49;100.00;99934.56;4994524;28;96506;-27
2023/10/25 05:54:12;;;;;;;1.35;0.93;;;;;;;9.48;100.00;99927.41;4994962;28;96918;-28
2023/10/25 05:56:38;;;;;;;2.47;0.80;;;;;;;9.52;100.00;99935.19;4994984;28;97447;-27
2023/10/25 05:59:03;;;;;;;2.00;1.33;;;;;;;9.53;100.00;99936.03;4994953;28;99477;-28
2023/10/25 06:01:49;;;;;;;2.00;1.27;;;;;;;9.53;100.00;99936.94;4995499;28;96626;-27
2023/10/25 06:04:15;;;;;;;2.42;1.00;;;;;;;9.53;100.00;99930.63;4995289;28;96659;-28
2023/10/25 06:06:42;;;;;;;4.65;1.60;;;;;;;9.52;100.00;99923.50;4994975;28;97378;-27
2023/10/25 06:09:10;;;;;;;2.40;0.68;;;;;;;9.56;100.00;99934.00;4995374;28;97833;-27
2023/10/25 06:11:38;;;;;;;3.83;0.88;;;;;;;9.51;100.00;99927.19;4993644;28;96609;-27
2023/10/25 06:14:05;;;;;;;5.50;1.42;;;;;;;9.50;100.00;99917.34;4993753;28;96943;-27
2023/10/25 06:16:31;;;;;;;5.35;1.42;;;;;;;9.51;100.00;99916.38;4992773;28;102618;-28
2023/10/25 06:18:56;;;;;;;1.88;1.52;;;;;;;9.54;100.00;99933.25;4993347;28;99250;-27
2023/10/25 06:21:22;;;;;;;3.10;1.30;;;;;;;9.51;100.00;99935.28;4994753;28;96667;-28
2023/10/25 06:23:47;;;;;;;1.50;1.08;;;;;;;9.53;100.00;99925.22;4995079;28;96699;-27
2023/10/25 06:26:12;;;;;;;1.92;0.95;;;;;;;9.49;100.00;99918.34;4994821;28;100222;-28
2023/10/25 06:28:38;;;;;;;2.03;1.05;;;;;;;9.53;100.00;99925.22;4994850;28;97253;-28
2023/10/25 06:31:03;;;;;;;1.30;1.20;;;;;;;9.53;100.00;99918.00;4994881;28;96646;-28
2023/10/25 06:33:28;;;;;;;1.58;1.13;;;;;;;9.50;100.00;99911.94;4995384;28;97047;-27
2023/10/25 06:35:59;;;;;;;2.33;1.17;;;;;;;9.50;100.00;99920.91;4994611;28;96784;-29
2023/10/25 06:38:26;;;;;;;1.70;1.27;;;;;;;9.53;100.00;99912.59;4993186;28;99218;-28
2023/10/25 06:40:51;;;;;;;1.25;0.88;;;;;;;9.51;100.00;99900.13;4994177;28;96525;-29
2023/10/25 06:43:17;;;;;;;1.67;0.98;;;;;;;9.49;100.00;99894.88;4994776;28;96830;-29
2023/10/25 06:45:45;;;;;;;2.15;1.10;;;;;;;9.51;100.00;99892.91;4994343;28;97379;-28
2023/10/25 06:48:11;;;;;;;1.88;1.08;;;;;;;9.53;100.00;99895.50;4992487;28;101077;-28
2023/10/25 06:50:36;;;;;;;1.58;1.02;;;;;;;9.53;100.00;99896.38;4994376;28;96769;-28
2023/10/25 06:53:02;;;;;;;1.45;1.10;;;;;;;9.51;100.00;99892.03;4994268;28;96782;-27
2023/10/25 06:55:28;;;;;;;1.48;0.80;;;;;;;9.55;100.00;99901.66;4993884;28;99085;-27
2023/10/25 06:57:53;;;;;;;1.00;0.80;;;;;;;9.54;100.00;99894.53;4994479;28;101107;-28
2023/10/25 07:00:19;;;;;;;2.35;1.13;;;;;;;9.53;100.00;99884.69;4994671;28;96842;-28
2023/10/25 07:02:50;;;;;;;1.15;0.95;;;;;;;9.57;100.00;99889.75;4993993;28;96895;-27
2023/10/25 07:05:18;;;;;;;1.15;0.75;;;;;;;9.60;100.00;99887.81;4992388;28;101339;-27
2023/10/25 07:07:45;;;;;;;1.55;1.02;;;;;;;9.56;100.00;99890.75;4992598;28;101400;-27
2023/10/25 07:10:11;;;;;;;5.60;2.60;;;;;;;9.55;100.00;99883.59;4992869;28;96530;-28
2023/10/25 07:12:36;;;;;;;5.50;2.28;;;;;;;9.52;100.00;99877.56;4992869;28;96822;-27
2023/10/25 07:15:02;;;;;;;2.65;1.70;;;;;;;9.54;100.00;99891.84;4993800;28;99377;-27
2023/10/25 07:17:28;;;;;;;1.50;1.20;;;;;;;9.51;100.00;99892.03;4993855;28;99129;-27
2023/10/25 07:19:54;;;;;;;2.10;1.00;;;;;;;9.49;100.00;99885.91;4994016;28;96650;-28
2023/10/25 07:22:19;;;;;;;1.88;1.13;;;;;;;9.53;100.00;99893.69;4994475;28;96783;-28
2023/10/25 07:24:45;;;;;;;3.72;1.20;;;;;;;9.53;100.00;99884.69;4993910;28;97478;-27
2023/10/25 07:27:10;;;;;;;2.72;1.35;;;;;;;9.55;100.00;99880.88;4993771;28;99298;-27
2023/10/25 07:29:38;;;;;;;3.38;1.23;;;;;;;9.59;100.00;99883.38;4993606;28;96500;-27
2023/10/25 07:32:04;;;;;;;1.33;0.95;;;;;;;9.54;100.00;99873.75;4993820;28;96797;-29
2023/10/25 07:34:29;;;;;;;1.50;0.85;;;;;;;9.52;100.00;99866.75;4993634;28;98000;-27
2023/10/25 07:36:54;;;;;;;1.70;0.90;;;;;;;9.55;100.00;99872.78;4993877;28;97256;-29
2023/10/25 07:39:20;;;;;;;2.50;1.40;;;;;;;9.57;100.00;99865.41;4993627;28;96484;-27
2023/10/25 07:41:46;;;;;;;1.70;1.23;;;;;;;9.60;100.00;99871.59;4992405;28;96927;-27
2023/10/25 07:44:11;;;;;;;2.00;0.95;;;;;;;9.61;100.00;99870.63;4993519;28;97329;-27
2023/10/25 07:46:37;;;;;;;1.38;1.00;;;;;;;9.60;100.00;99860.78;4993605;28;97882;-28
2023/10/25 07:49:03;;;;;;;1.75;1.00;;;;;;;9.59;100.00;99859.06;4992342;28;96625;-27
2023/10/25 07:51:28;;;;;;;2.28;1.10;;;;;;;9.61;100.00;99862.53;4993684;28;96795;-27
2023/10/25 07:53:54;;;;;;;1.73;1.35;;;;;;;9.62;100.00;99856.97;4991368;28;100911;-28
2023/10/25 07:56:19;;;;;;;3.70;1.23;;;;;;;9.68;100.00;99855.69;4993215;28;97281;-28
2023/10/25 07:58:45;;;;;;;4.78;1.20;;;;;;;9.69;100.00;99847.44;4993313;28;96472;-28
2023/10/25 08:01:12;;;;;;;2.22;1.10;;;;;;;9.70;100.00;99853.69;4991920;28;96810;-28
2023/10/25 08:03:37;;;;;;;2.45;1.30;;;;;;;9.64;100.00;99840.66;4991884;28;100952;-28
2023/10/25 08:06:03;;;;;;;4.68;2.33;;;;;;;9.57;100.00;99834.81;4993297;28;97382;-27
2023/10/25 08:08:28;;;;;;;8.65;3.42;;;;;;;9.64;100.00;99841.50;4993299;28;96461;-27
2023/10/25 08:11:05;;;;;;;4.25;1.63;;;;;;;9.66;100.00;99844.97;4993642;28;96703;-28
2023/10/25 08:13:33;;;;;;;2.50;1.40;;;;;;;9.69;100.00;99838.47;4992176;28;99753;-27
2023/10/25 08:16:01;;;;;;;1.65;1.08;;;;;;;9.63;100.00;99828.09;4991295;28;101128;-28
2023/10/25 08:18:30;;;;;;;2.00;1.17;;;;;;;9.70;100.00;99838.38;4991344;28;97465;-27
2023/10/25 08:20:56;;;;;;;1.52;1.00;;;;;;;9.70;100.00;99832.06;4991768;28;96908;-29
2023/10/25 08:23:22;;;;;;;2.03;1.17;;;;;;;9.71;100.00;99831.97;4991517;28;101246;-27
2023/10/25 08:25:47;;;;;;;1.60;0.90;;;;;;;9.73;100.00;99835.41;4993355;28;97287;-29
2023/10/25 08:28:14;;;;;;;3.35;1.20;;;;;;;9.66;100.00;99823.34;4992865;28;96465;-27
2023/10/25 08:30:39;;;;;;;2.55;1.13;;;;;;;9.73;100.00;99838.13;4991519;28;96785;-28
2023/10/25 08:33:05;;;;;;;2.28;0.98;;;;;;;9.72;100.00;99833.69;4992980;28;97480;-28
2023/10/25 08:35:30;;;;;;;1.45;0.70;;;;;;;9.73;100.00;99834.56;4993074;28;97834;-27
2023/10/25 08:37:56;;;;;;;2.35;1.15;;;;;;;9.71;100.00;99818.44;4991730;28;96625;-27
2023/10/25 08:40:23;;;;;;;1.23;0.90;;;;;;;9.74;100.00;99829.03;4992912;28;96886;-28
2023/10/25 08:42:49;;;;;;;1.23;0.90;;;;;;;9.73;100.00;99827.31;4992142;28;97388;-27
2023/10/25 08:45:16;;;;;;;1.80;1.23;;;;;;;9.75;100.00;99810.97;4992290;28;97291;-28
2023/10/25 08:47:42;;;;;;;1.95;0.77;;;;;;;9.73;100.00;99813.78;4991086;28;96719;-27
2023/10/25 08:50:07;;;;;;;1.35;0.85;;;;;;;9.74;100.00;99804.69;4991453;28;96782;-28
2023/10/25 08:52:37;;;;;;;1.25;1.08;;;;;;;9.82;100.00;99804.13;4992589;28;98101;-28
2023/10/25 08:55:03;;;;;;;1.40;1.02;;;;;;;9.83;100.00;99792.31;4991934;28;97397;-27
2023/10/25 08:57:30;;;;;;;5.65;2.00;;;;;;;9.86;100.00;99799.34;4991267;28;96514;-28
2023/10/25 08:59:55;;;;;;;2.42;1.52;;;;;;;9.86;100.00;99796.63;4991538;28;96876;-27
2023/10/25 09:02:20;;;;;;;3.05;1.27;;;;;;;9.84;100.00;99785.91;4992743;28;97525;-27
2023/10/25 09:05:08;;;;;;;2.63;1.13;;;;;;;9.85;100.00;99779.56;4992852;28;97229;-27
2023/10/25 09:07:35;;;;;;;2.00;1.05;;;;;;;9.84;100.00;99779.66;4990694;28;97181;-28
2023/10/25 09:10:05;;;;;;;1.17;0.98;;;;;;;9.84;100.00;99783.22;4990785;28;97201;-28
2023/10/25 09:12:32;;;;;;;1.15;0.98;;;;;;;9.84;100.00;99779.66;4992548;28;98164;-28
2023/10/25 09:14:58;;;;;;;1.15;0.73;;;;;;;9.85;100.00;99771.44;4992109;28;97911;-28
2023/10/25 09:17:23;;;;;;;1.15;0.95;;;;;;;9.86;100.00;99769.59;4992246;28;96537;-29
2023/10/25 09:19:49;;;;;;;2.08;1.02;;;;;;;9.85;100.00;99766.03;4992484;28;96736;-27
2023/10/25 09:22:22;;;;;;;2.60;1.02;;;;;;;9.87;100.00;99752.41;4990731;28;101615;-29
2023/10/25 09:24:59;;;;;;;2.30;1.23;;;;;;;9.90;100.00;99765.69;4990942;28;100891;-28
2023/10/25 09:27:24;;;;;;;2.38;1.27;;;;;;;9.84;100.00;99745.34;4990865;28;96644;-28
2023/10/25 09:29:50;;;;;;;1.08;0.55;;;;;;;9.85;100.00;99757.06;4992023;28;96781;-27
2023/10/25 09:32:20;;;;;;;5.60;1.08;;;;;;;9.87;100.00;99757.81;4990223;28;100705;-28
2023/10/25 09:34:49;;;;;;;5.45;1.38;;;;;;;9.86;100.00;99756.91;4990433;28;100959;-27
2023/10/25 09:37:15;;;;;;;7.40;2.67;;;;;;;9.86;100.00;99750.66;4991820;28;96807;-27
2023/10/25 09:39:41;;;;;;;7.85;3.60;;;;;;;9.84;100.00;99739.94;4992136;28;96786;-27
2023/10/25 09:42:14;;;;;;;10.00;2.58;;;;;;;9.85;100.00;99730.00;4991617;28;99716;-28
2023/10/25 09:44:51;;;;;;;2.80;1.83;;;;;;;9.87;100.00;99728.06;4991705;28;97827;-29
2023/10/25 09:47:18;;;;;;;2.65;1.70;;;;;;;9.85;100.00;99720.03;4991869;28;96807;-29
2023/10/25 09:49:45;;;;;;;1.98;1.55;;;;;;;9.89;100.00;99734.19;4990696;28;96857;-29
2023/10/25 09:52:25;;;;;;;2.53;1.52;;;;;;;9.87;100.00;99726.22;4990304;28;100913;-27
2023/10/25 09:54:52;;;;;;;1.85;1.20;;;;;;;9.87;100.00;99722.66;4990169;28;101018;-28
2023/10/25 09:57:19;;;;;;;1.58;1.15;;;;;;;9.83;100.00;99719.28;4989994;28;97188;-28
2023/10/25 09:59:45;;;;;;;3.90;1.10;;;;;;;9.83;100.00;99713.03;4990486;28;96983;-27
2023/10/25 10:02:47;;;;;;;0.98;0.85;;;;;;;9.88;100.00;99716.25;4989952;28;100803;-27
2023/10/25 10:05:25;;;;;;;1.80;0.95;;;;;;;9.85;100.00;99706.53;4990188;28;98895;-27
2023/10/25 10:07:53;;;;;;;1.50;1.08;;;;;;;9.86;100.00;99710.94;4991713;28;96600;-28
2023/10/25 10:10:39;;;;;;;1.00;0.73;;;;;;;9.86;100.00;99697.41;4991507;28;96795;-28
2023/10/25 10:13:18;;;;;;;1.20;0.77;;;;;;;9.86;100.00;99689.31;4990179;28;101079;-27
2023/10/25 10:16:09;;;;;;;2.92;1.30;;;;;;;9.86;100.00;99691.16;4990173;28;100700;-27
2023/10/25 10:18:44;;;;;;;1.17;0.98;;;;;;;9.77;100.00;99682.78;4990110;28;96684;-27
2023/10/25 10:21:10;;;;;;;1.80;0.85;;;;;;;9.78;100.00;99679.09;4991228;28;96658;-27
2023/10/25 10:23:40;;;;;;;2.92;1.15;;;;;;;9.84;100.00;99687.69;4989972;28;99046;-29
2023/10/25 10:26:08;;;;;;;1.58;1.15;;;;;;;9.79;100.00;99678.09;4990701;28;98874;-27
2023/10/25 10:28:46;;;;;;;1.27;1.00;;;;;;;9.80;100.00;99670.88;4990187;28;96678;-29
2023/10/25 10:31:12;;;;;;;1.30;1.02;;;;;;;9.77;100.00;99669.25;4991180;28;96730;-27
2023/10/25 10:33:46;;;;;;;1.23;1.02;;;;;;;9.79;100.00;99671.81;4989660;28;100821;-28
2023/10/25 10:36:25;;;;;;;1.35;0.88;;;;;;;9.82;100.00;99668.03;4990617;28;98906;-29
2023/10/25 10:39:13;;;;;;;1.60;1.10;;;;;;;9.83;100.00;99659.81;4993451;28;96524;-28
2023/10/25 10:41:44;;;;;;;3.75;1.10;;;;;;;9.77;100.00;99650.34;4995152;28;96723;-28
2023/10/25 10:44:11;;;;;;;2.70;1.13;;;;;;;9.78;100.00;99652.03;4992004;28;100803;-28
2023/10/25 10:46:43;;;;;;;1.33;1.23;;;;;;;9.83;100.00;99662.50;4977557;28;101040;-28
2023/10/25 10:49:13;;;;;;;3.05;1.17;;;;;;;9.83;100.00;99654.38;4969997;28;97086;-33
2023/10/25 10:51:39;;;;;;;4.38;1.02;;;;;;;9.81;100.00;99645.53;4971077;28;97054;-27
2023/10/25 10:54:06;;;;;;;2.13;1.40;;;;;;;9.82;100.00;99646.38;4970574;28;99891;-29
2023/10/25 10:56:32;;;;;;;2.47;1.15;;;;;;;9.83;100.00;99634.59;4970311;28;101099;-28
2023/10/25 10:58:58;;;;;;;0.93;0.82;;;;;;;9.89;100.00;99647.63;4972695;28;96918;-28
2023/10/25 11:01:23;;;;;;;2.90;1.55;;;;;;;9.93;100.00;99643.72;4973146;28;97196;-28
2023/10/25 11:03:49;;;;;;;2.28;1.17;;;;;;;9.88;100.00;99635.09;4974460;28;97952;-27
2023/10/25 11:06:14;;;;;;;2.20;1.20;;;;;;;9.86;100.00;99632.50;4974605;28;97892;-27
2023/10/25 11:08:42;;;;;;;3.33;1.25;;;;;;;9.87;100.00;99620.72;4974547;28;96592;-29
2023/10/25 11:11:07;;;;;;;1.77;1.30;;;;;;;9.93;100.00;99625.63;4970305;28;97090;-30
2023/10/25 11:13:32;;;;;;;2.85;1.20;;;;;;;9.98;100.00;99612.59;4971666;28;98389;-29
2023/10/25 11:16:08;;;;;;;1.92;1.33;;;;;;;10.04;100.00;99613.97;4971971;28;97784;-29
2023/10/25 11:18:34;;;;;;;1.50;0.95;;;;;;;10.00;100.00;99609.78;4971960;28;97019;-30
2023/10/25 11:21:00;;;;;;;2.65;1.33;;;;;;;10.03;100.00;99608.69;4971876;28;97039;-27
2023/10/25 11:23:26;;;;;;;1.63;1.23;;;;;;;10.08;100.00;99601.94;4971468;28;99577;-30
2023/10/25 11:25:52;;;;;;;1.85;1.40;;;;;;;10.09;100.00;99595.53;4973441;28;97970;-28
2023/10/25 11:28:20;;;;;;;1.42;1.15;;;;;;;10.05;100.00;99582.38;4972758;28;96577;-27